createdAt,value
2022-10-20T00:00:35.018Z,101084.19
2022-10-20T00:03:02.972Z,101082.28
2022-10-20T00:05:31.000Z,101074.66
2022-10-20T00:07:58.835Z,101071.66
2022-10-20T00:10:26.736Z,101069.75
2022-10-20T00:12:54.746Z,101067.00
2022-10-20T00:15:22.707Z,101080.06
2022-10-20T00:17:52.200Z,101067.53
2022-10-20T00:20:20.103Z,101075.19
2022-10-20T00:22:48.148Z,101061.91
2022-10-20T00:25:16.320Z,101061.59
2022-10-20T00:27:44.202Z,101048.00
2022-10-20T00:30:12.451Z,101054.81
2022-10-20T00:32:40.295Z,101053.44
2022-10-20T00:35:10.189Z,101045.28
2022-10-20T00:37:38.046Z,101038.72
2022-10-20T00:40:06.357Z,101032.75
2022-10-20T00:42:34.682Z,101024.06
2022-10-20T00:45:03.293Z,101016.97
2022-10-20T00:47:37.009Z,101012.63
2022-10-20T00:50:08.555Z,101012.31
2022-10-20T00:52:38.498Z,101010.19
2022-10-20T00:55:07.727Z,101006.13
2022-10-20T00:57:36.281Z,101002.31
2022-10-20T01:00:05.437Z,100987.59
2022-10-20T01:02:33.497Z,100982.16
2022-10-20T01:05:01.673Z,100989.78
2022-10-20T01:07:29.599Z,100980.53
2022-10-20T01:09:58.821Z,100978.84
2022-10-20T01:12:29.402Z,100976.13
2022-10-20T01:15:01.654Z,100972.63
2022-10-20T01:17:36.323Z,100968.78
2022-10-20T01:20:23.350Z,100969.06
2022-10-20T01:23:03.617Z,100975.28
2022-10-20T01:25:40.869Z,100983.69
2022-10-20T01:28:14.819Z,100982.63
2022-10-20T01:30:45.943Z,100973.13
2022-10-20T01:33:19.491Z,100961.41
2022-10-20T01:35:53.739Z,100959.75
2022-10-20T01:38:24.523Z,100958.94
2022-10-20T01:40:55.594Z,100944.53
2022-10-20T01:43:26.568Z,100943.97
2022-10-20T01:45:55.465Z,100933.66
2022-10-20T01:48:26.269Z,100923.91
2022-10-20T01:50:54.237Z,100925.50
2022-10-20T01:53:22.285Z,100918.19
2022-10-20T01:55:51.761Z,100914.38
2022-10-20T01:58:35.270Z,100910.03
2022-10-20T02:01:08.362Z,100915.44
2022-10-20T02:03:42.440Z,100911.06
2022-10-20T02:06:17.655Z,100909.75
2022-10-20T02:08:47.490Z,100898.00
2022-10-20T02:11:20.881Z,100903.44
2022-10-20T02:13:50.953Z,100902.09
2022-10-20T02:16:21.438Z,100894.25
2022-10-20T02:18:49.721Z,100880.66
2022-10-20T02:21:17.856Z,100876.31
2022-10-20T02:23:48.024Z,100881.47
2022-10-20T02:26:17.200Z,100886.91
2022-10-20T02:28:48.004Z,100865.47
2022-10-20T02:31:17.809Z,100866.22
2022-10-20T02:33:46.651Z,100864.34
2022-10-20T02:36:17.626Z,100858.09
2022-10-20T02:38:45.771Z,100864.06
2022-10-20T02:41:13.939Z,100862.47
2022-10-20T02:43:42.141Z,100864.06
2022-10-20T02:46:10.283Z,100858.66
2022-10-20T02:48:39.576Z,100844.56
2022-10-20T02:51:07.719Z,100843.47
2022-10-20T02:53:35.706Z,100835.59
2022-10-20T02:56:03.868Z,100829.59
2022-10-20T02:58:31.738Z,100838.00
2022-10-20T03:00:59.656Z,100831.72
2022-10-20T03:03:27.595Z,100822.78
2022-10-20T03:05:56.899Z,100828.78
2022-10-20T03:08:25.059Z,100819.78
2022-10-20T03:10:52.948Z,100816.28
2022-10-20T03:13:20.863Z,100815.75
2022-10-20T03:15:49.680Z,100819.53
2022-10-20T03:18:17.564Z,100819.81
2022-10-20T03:20:45.622Z,100813.03
2022-10-20T03:23:17.754Z,100815.19
2022-10-20T03:25:48.372Z,100814.63
2022-10-20T03:28:16.259Z,100812.72
2022-10-20T03:30:46.385Z,100811.38
2022-10-20T03:33:14.318Z,100821.66
2022-10-20T03:35:42.128Z,100803.97
2022-10-20T03:38:09.933Z,100815.66
2022-10-20T03:40:39.103Z,100797.22
2022-10-20T03:43:07.070Z,100812.44
2022-10-20T03:45:34.896Z,100802.66
2022-10-20T03:48:02.701Z,100795.63
2022-10-20T03:50:30.585Z,100790.97
2022-10-20T03:52:58.866Z,100789.88
2022-10-20T03:55:26.938Z,100781.97
2022-10-20T03:57:56.234Z,100773.31
2022-10-20T04:00:24.120Z,100767.34
2022-10-20T04:02:53.087Z,100761.63
2022-10-20T04:05:21.634Z,100759.72
2022-10-20T04:07:49.889Z,100755.38
2022-10-20T04:10:18.147Z,100756.47
2022-10-20T04:12:46.085Z,100754.31
2022-10-20T04:15:15.250Z,100757.81
2022-10-20T04:17:43.194Z,100767.88
2022-10-20T04:20:11.467Z,100762.72
2022-10-20T04:22:40.431Z,100750.75
2022-10-20T04:25:08.712Z,100738.53
2022-10-20T04:27:36.844Z,100748.34
2022-10-20T04:30:05.256Z,100735.84
2022-10-20T04:32:34.592Z,100733.38
2022-10-20T04:35:02.422Z,100741.25
2022-10-20T04:37:30.324Z,100738.81
2022-10-20T04:39:58.556Z,100741.28
2022-10-20T04:42:26.489Z,100734.75
2022-10-20T04:44:54.518Z,100737.75
2022-10-20T04:47:22.563Z,100722.25
2022-10-20T04:49:51.807Z,100720.63
2022-10-20T04:52:20.883Z,100716.00
2022-10-20T04:54:48.832Z,100706.78
2022-10-20T04:57:16.911Z,100709.78
2022-10-20T04:59:44.745Z,100706.53
2022-10-20T05:02:12.638Z,100697.25
2022-10-20T05:04:40.667Z,100686.94
2022-10-20T05:07:10.029Z,100691.28
2022-10-20T05:09:38.129Z,100670.34
2022-10-20T05:12:06.295Z,100668.44
2022-10-20T05:14:34.273Z,100669.53
2022-10-20T05:17:04.228Z,100672.22
2022-10-20T05:19:34.719Z,100667.88
2022-10-20T05:22:03.015Z,100668.97
2022-10-20T05:24:32.479Z,100644.78
2022-10-20T05:27:00.394Z,100630.91
2022-10-20T05:29:28.400Z,100626.00
2022-10-20T05:31:56.334Z,100626.84
2022-10-20T05:34:24.482Z,100626.28
2022-10-20T05:36:53.496Z,100623.84
2022-10-20T05:39:21.544Z,100620.03
2022-10-20T05:41:51.155Z,100619.50
2022-10-20T05:44:21.426Z,100617.31
2022-10-20T05:46:52.152Z,100612.41
2022-10-20T05:49:20.209Z,100624.66
2022-10-20T05:51:50.107Z,100617.84
2022-10-20T05:54:18.189Z,100626.00
2022-10-20T05:56:46.058Z,100622.75
2022-10-20T05:59:15.308Z,100624.38
2022-10-20T06:01:49.033Z,100618.94
2022-10-20T06:04:17.895Z,100626.00
2022-10-20T06:06:48.820Z,100617.31
2022-10-20T06:09:17.144Z,100608.34
2022-10-20T06:11:47.220Z,100615.13
2022-10-20T06:14:17.275Z,100615.69
2022-10-20T06:16:46.127Z,100617.84
2022-10-20T06:19:14.327Z,100615.13
2022-10-20T06:21:44.698Z,100614.06
2022-10-20T06:24:12.838Z,100624.94
2022-10-20T06:26:41.057Z,100631.47
2022-10-20T06:29:11.038Z,100617.03
2022-10-20T06:31:41.339Z,100616.75
2022-10-20T06:34:12.590Z,100617.81
2022-10-20T06:36:43.027Z,100621.63
2022-10-20T06:39:18.631Z,100623.22
2022-10-20T06:41:48.565Z,100628.66
2022-10-20T06:44:17.280Z,100629.75
2022-10-20T06:46:49.177Z,100637.31
2022-10-20T06:49:17.152Z,100635.38
2022-10-20T06:51:45.761Z,100628.56
2022-10-20T06:54:14.112Z,100634.53
2022-10-20T06:56:43.339Z,100624.69
2022-10-20T06:59:11.196Z,100620.59
2022-10-20T07:01:40.187Z,100611.56
2022-10-20T07:04:11.466Z,100614.22
2022-10-20T07:06:40.495Z,100617.16
2022-10-20T07:09:11.352Z,100620.41
2022-10-20T07:11:39.450Z,100616.50
2022-10-20T07:14:07.321Z,100620.25
2022-10-20T07:16:36.147Z,100623.19
2022-10-20T07:19:04.889Z,100621.81
2022-10-20T07:21:38.200Z,100618.25
2022-10-20T07:24:09.507Z,100626.03
2022-10-20T07:26:38.943Z,100619.69
2022-10-20T07:29:06.862Z,100610.41
2022-10-20T07:31:36.266Z,100604.38
2022-10-20T07:34:07.369Z,100612.16
2022-10-20T07:36:43.825Z,100611.50
2022-10-20T07:39:14.036Z,100612.66
2022-10-20T07:41:44.055Z,100605.59
2022-10-20T07:44:12.559Z,100610.72
2022-10-20T07:46:40.450Z,100611.03
2022-10-20T07:49:39.160Z,100617.50
2022-10-20T07:51:58.267Z,100614.34
2022-10-20T07:54:26.128Z,100614.75
2022-10-20T07:56:53.960Z,100615.22
2022-10-20T07:59:21.896Z,100603.50
2022-10-20T08:01:49.767Z,100614.56
2022-10-20T08:04:17.819Z,100608.19
2022-10-20T08:06:47.159Z,100597.56
2022-10-20T08:09:18.365Z,100589.41
2022-10-20T08:11:46.256Z,100590.59
2022-10-20T08:14:14.225Z,100596.44
2022-10-20T08:16:53.479Z,100580.44
2022-10-20T08:22:12.942Z,100569.00
2022-10-20T08:24:42.086Z,100562.50
2022-10-20T08:27:09.943Z,100562.63
2022-10-20T08:29:38.115Z,100563.78
2022-10-20T08:32:06.264Z,100574.50
2022-10-20T08:34:34.335Z,100569.63
2022-10-20T08:37:02.183Z,100559.28
2022-10-20T08:39:30.081Z,100559.50
2022-10-20T08:42:14.935Z,100553.59
2022-10-20T08:44:45.363Z,100553.69
2022-10-20T08:47:17.368Z,100549.44
2022-10-20T08:49:45.845Z,100547.63
2022-10-20T08:52:15.582Z,100541.75
2022-10-20T08:54:43.759Z,100543.81
2022-10-20T08:57:21.837Z,100535.03
2022-10-20T08:59:51.789Z,100541.16
2022-10-20T09:02:19.607Z,100545.50
2022-10-20T09:04:49.149Z,100541.69
2022-10-20T09:07:22.013Z,100547.44
2022-10-20T09:09:50.183Z,100548.72
2022-10-20T09:12:19.890Z,100545.75
2022-10-20T09:14:47.900Z,100546.56
2022-10-20T09:17:17.512Z,100529.75
2022-10-20T09:19:47.343Z,100533.31
2022-10-20T09:22:15.835Z,100530.91
2022-10-20T09:24:44.618Z,100526.88
2022-10-20T09:27:24.200Z,100539.53
2022-10-20T09:29:52.212Z,100526.13
2022-10-20T09:35:18.819Z,100527.38
2022-10-20T09:37:53.624Z,100519.00
2022-10-20T09:40:21.907Z,100526.34
2022-10-20T09:42:54.266Z,100510.72
2022-10-20T09:45:24.008Z,100524.69
2022-10-20T09:47:53.268Z,100523.59
2022-10-20T09:50:24.674Z,100510.34
2022-10-20T09:52:53.275Z,100506.88
2022-10-20T09:55:24.580Z,100494.19
2022-10-20T09:57:54.612Z,100495.19
2022-10-20T10:00:36.198Z,100488.25
2022-10-20T10:03:22.797Z,100498.88
2022-10-20T10:05:52.535Z,100491.47
2022-10-20T10:08:21.050Z,100489.84
2022-10-20T10:10:59.263Z,100500.88
2022-10-20T10:13:30.127Z,100500.78
2022-10-20T10:16:02.568Z,100492.41
2022-10-20T10:18:31.456Z,100484.44
2022-10-20T10:21:00.635Z,100483.81
2022-10-20T10:23:29.395Z,100491.94
2022-10-20T10:26:00.626Z,100492.59
2022-10-20T10:28:34.210Z,100489.66
2022-10-20T10:31:10.054Z,100491.81
2022-10-20T10:33:38.182Z,100488.41
2022-10-20T10:36:08.476Z,100490.25
2022-10-20T10:38:37.217Z,100494.47
2022-10-20T10:41:10.592Z,100499.50
2022-10-20T10:43:47.816Z,100499.28
2022-10-20T10:46:19.938Z,100504.78
2022-10-20T10:49:00.729Z,100515.09
2022-10-20T10:51:33.627Z,100506.38
2022-10-20T10:54:11.845Z,100512.91
2022-10-20T10:56:44.620Z,100501.22
2022-10-20T10:59:16.814Z,100506.50
2022-10-20T11:01:53.376Z,100505.38
2022-10-20T11:04:36.940Z,100496.59
2022-10-20T11:07:08.686Z,100506.50
2022-10-20T11:09:42.335Z,100498.22
2022-10-20T11:12:19.342Z,100499.94
2022-10-20T11:14:56.915Z,100511.00
2022-10-20T11:17:33.420Z,100500.38
2022-10-20T11:20:10.006Z,100483.81
2022-10-20T11:22:39.893Z,100488.94
2022-10-20T11:25:13.523Z,100481.16
2022-10-20T11:27:42.438Z,100478.91
2022-10-20T11:30:18.227Z,100471.19
2022-10-20T11:32:56.579Z,100468.06
2022-10-20T11:35:29.007Z,100466.84
2022-10-20T11:38:03.870Z,100462.66
2022-10-20T11:40:33.072Z,100450.97
2022-10-20T11:43:08.817Z,100427.75
2022-10-20T11:45:43.823Z,100443.69
2022-10-20T11:48:16.457Z,100445.56
2022-10-20T11:50:50.084Z,100452.50
2022-10-20T11:53:28.402Z,100461.03
2022-10-20T11:56:07.372Z,100456.09
2022-10-20T11:58:42.586Z,100467.72
2022-10-20T12:01:24.268Z,100456.16
2022-10-20T12:04:25.440Z,100460.53
2022-10-20T12:07:01.160Z,100470.75
2022-10-20T12:09:42.558Z,100464.72
2022-10-20T12:12:13.049Z,100469.34
2022-10-20T12:14:43.104Z,100463.59
2022-10-20T12:17:28.610Z,100460.78
2022-10-20T12:20:11.565Z,100459.25
2022-10-20T12:22:43.990Z,100459.84
2022-10-20T12:25:38.059Z,100460.06
2022-10-20T12:28:21.017Z,100456.44
2022-10-20T12:30:54.999Z,100467.00
2022-10-20T12:33:35.950Z,100472.84
2022-10-20T12:36:14.794Z,100473.34
2022-10-20T12:38:45.518Z,100473.66
2022-10-20T12:41:24.578Z,100480.47
2022-10-20T12:43:54.210Z,100478.34
2022-10-20T12:46:27.683Z,100476.56
2022-10-20T12:48:59.893Z,100467.03
2022-10-20T12:51:36.042Z,100468.78
2022-10-20T12:54:09.256Z,100463.25
2022-10-20T12:56:41.886Z,100465.53
2022-10-20T12:59:21.514Z,100460.66
2022-10-20T13:02:08.064Z,100464.69
2022-10-20T13:04:55.366Z,100452.72
2022-10-20T13:07:38.522Z,100427.50
2022-10-20T13:13:24.010Z,100415.59
2022-10-20T13:15:53.591Z,100414.13
2022-10-20T13:18:26.934Z,100416.75
2022-10-20T13:20:57.158Z,100431.78
2022-10-20T13:23:26.906Z,100436.97
2022-10-20T13:25:56.931Z,100443.44
2022-10-20T13:28:28.477Z,100442.47
2022-10-20T13:31:08.316Z,100438.41
2022-10-20T13:34:02.687Z,100424.19
2022-10-20T13:36:37.076Z,100428.88
2022-10-20T13:39:12.761Z,100426.94
2022-10-20T13:41:45.848Z,100423.06
2022-10-20T13:44:29.128Z,100411.91
2022-10-20T13:47:04.970Z,100424.53
2022-10-20T13:49:41.882Z,100428.53
2022-10-20T13:52:14.585Z,100428.84
2022-10-20T13:54:45.074Z,100419.97
2022-10-20T13:57:25.648Z,100406.63
2022-10-20T13:59:59.824Z,100411.25
2022-10-20T14:02:29.039Z,100407.50
2022-10-20T14:05:04.096Z,100415.97
2022-10-20T14:07:39.707Z,100391.94
2022-10-20T14:10:09.439Z,100404.31
2022-10-20T14:12:37.962Z,100386.34
2022-10-20T14:15:20.233Z,100391.19
2022-10-20T14:17:55.996Z,100394.91
2022-10-20T14:20:24.436Z,100393.56
2022-10-20T14:22:54.358Z,100380.72
2022-10-20T14:25:28.579Z,100389.06
2022-10-20T14:27:57.715Z,100387.09
2022-10-20T14:30:27.909Z,100395.50
2022-10-20T14:32:58.235Z,100388.09
2022-10-20T14:35:30.054Z,100382.88
2022-10-20T14:38:03.305Z,100379.41
2022-10-20T14:40:32.952Z,100373.47
2022-10-20T14:43:03.102Z,100376.06
2022-10-20T14:48:02.101Z,100362.81
2022-10-20T14:50:34.874Z,100360.97
2022-10-20T14:53:30.417Z,100348.03
2022-10-20T14:56:00.627Z,100347.38
2022-10-20T14:58:30.871Z,100337.78
2022-10-20T15:01:16.277Z,100352.31
2022-10-20T15:03:44.749Z,100354.47
2022-10-20T15:06:16.922Z,100371.47
2022-10-20T15:08:58.057Z,100357.19
2022-10-20T15:11:28.228Z,100352.72
2022-10-20T15:13:59.040Z,100359.59
2022-10-20T15:16:43.501Z,100348.41
2022-10-20T15:19:13.488Z,100334.94
2022-10-20T15:21:42.453Z,100342.56
2022-10-20T15:24:10.516Z,100346.25
2022-10-20T15:26:38.576Z,100340.28
2022-10-20T15:29:07.960Z,100346.84
2022-10-20T15:34:12.339Z,100342.34
2022-10-20T15:36:42.266Z,100341.88
2022-10-20T15:39:12.091Z,100344.97
2022-10-20T15:41:43.230Z,100338.53
2022-10-20T15:44:16.125Z,100340.34
2022-10-20T15:46:45.884Z,100331.16
2022-10-20T15:49:17.964Z,100336.25
2022-10-20T15:51:47.018Z,100333.03
2022-10-20T15:54:18.820Z,100339.63
2022-10-20T15:56:47.059Z,100333.84
2022-10-20T15:59:15.108Z,100328.19
2022-10-20T16:01:43.390Z,100326.44
2022-10-20T16:04:18.746Z,100323.34
2022-10-20T16:06:47.118Z,100320.66
2022-10-20T16:09:21.369Z,100322.03
2022-10-20T16:11:50.121Z,100311.94
2022-10-20T16:14:22.695Z,100320.75
2022-10-20T16:16:51.235Z,100323.38
2022-10-20T16:19:20.782Z,100321.94
2022-10-20T16:21:48.899Z,100309.03
2022-10-20T16:24:16.856Z,100305.25
2022-10-20T16:26:44.831Z,100310.47
2022-10-20T16:29:20.489Z,100309.22
2022-10-20T16:31:49.320Z,100307.28
2022-10-20T16:34:17.289Z,100310.44
2022-10-20T16:36:52.825Z,100322.31
2022-10-20T16:39:21.071Z,100319.56
2022-10-20T16:41:49.262Z,100308.59
2022-10-20T16:44:17.249Z,100304.75
2022-10-20T16:46:53.513Z,100301.41
2022-10-20T16:49:21.882Z,100314.03
2022-10-20T16:51:51.805Z,100303.56
2022-10-20T16:54:20.151Z,100298.56
2022-10-20T16:56:52.560Z,100300.31
2022-10-20T16:59:20.924Z,100294.09
2022-10-20T17:01:48.961Z,100292.16
2022-10-20T17:04:17.348Z,100280.84
2022-10-20T17:06:45.494Z,100291.53
2022-10-20T17:09:15.105Z,100303.81
2022-10-20T17:11:45.278Z,100288.75
2022-10-20T17:14:13.620Z,100286.25
2022-10-20T17:16:42.352Z,100290.78
2022-10-20T17:19:11.534Z,100303.50
2022-10-20T17:21:39.828Z,100302.28
2022-10-20T17:24:13.715Z,100298.41
2022-10-20T17:26:43.492Z,100302.28
2022-10-20T17:29:12.035Z,100300.97
2022-10-20T17:31:40.303Z,100302.28
2022-10-20T17:34:08.399Z,100303.06
2022-10-20T17:36:36.642Z,100300.97
2022-10-20T17:39:15.443Z,100297.25
2022-10-20T17:41:44.987Z,100299.84
2022-10-20T17:44:20.562Z,100293.88
2022-10-20T17:46:49.500Z,100288.88
2022-10-20T17:49:23.388Z,100294.22
2022-10-20T17:51:51.496Z,100283.09
2022-10-20T17:54:20.425Z,100289.72
2022-10-20T17:56:52.367Z,100294.69
2022-10-20T17:59:20.816Z,100305.84
2022-10-20T18:01:49.103Z,100302.59
2022-10-20T18:04:18.342Z,100306.53
2022-10-20T18:06:46.886Z,100298.75
2022-10-20T18:09:16.122Z,100302.81
2022-10-20T18:11:45.140Z,100311.38
2022-10-20T18:14:15.110Z,100315.84
2022-10-20T18:16:46.081Z,100309.09
2022-10-20T18:19:14.900Z,100307.16
2022-10-20T18:21:43.469Z,100305.53
2022-10-20T18:24:12.807Z,100303.28
2022-10-20T18:26:40.968Z,100306.84
2022-10-20T18:29:10.306Z,100292.13
2022-10-20T18:31:41.030Z,100290.84
2022-10-20T18:34:18.589Z,100284.06
2022-10-20T18:36:47.710Z,100279.84
2022-10-20T18:39:17.028Z,100270.78
2022-10-20T18:41:46.323Z,100277.75
2022-10-20T18:44:16.123Z,100272.56
2022-10-20T18:46:46.895Z,100270.31
2022-10-20T18:49:16.800Z,100283.06
2022-10-20T18:51:46.108Z,100273.38
2022-10-20T18:54:14.324Z,100275.81
2022-10-20T18:56:42.909Z,100269.34
2022-10-20T18:59:14.005Z,100263.03
2022-10-20T19:01:42.528Z,100262.72
2022-10-20T19:04:14.155Z,100260.28
2022-10-20T19:06:43.480Z,100251.41
2022-10-20T19:09:14.576Z,100245.91
2022-10-20T19:11:42.956Z,100225.22
2022-10-20T19:14:11.543Z,100236.06
2022-10-20T19:16:40.176Z,100237.69
2022-10-20T19:19:09.777Z,100239.28
2022-10-20T19:21:40.153Z,100228.13
2022-10-20T19:24:09.613Z,100229.09
2022-10-20T19:26:39.649Z,100230.09
2022-10-20T19:29:09.411Z,100226.34
2022-10-20T19:31:40.252Z,100237.69
2022-10-20T19:34:09.799Z,100232.00
2022-10-20T19:36:40.068Z,100228.78
2022-10-20T19:39:10.173Z,100233.91
2022-10-20T19:41:38.944Z,100240.09
2022-10-20T19:44:08.328Z,100233.91
2022-10-20T19:46:42.663Z,100223.22
2022-10-20T19:49:10.822Z,100218.84
2022-10-20T19:51:40.513Z,100208.78
2022-10-20T19:54:09.213Z,100210.19
2022-10-20T19:56:37.195Z,100206.97
2022-10-20T19:59:06.481Z,100202.09
2022-10-20T20:01:35.633Z,100205.16
2022-10-20T20:04:04.359Z,100201.84
2022-10-20T20:06:32.696Z,100199.13
2022-10-20T20:09:03.799Z,100193.94
2022-10-20T20:11:32.663Z,100191.75
2022-10-20T20:14:02.967Z,100184.50
2022-10-20T20:16:31.611Z,100183.53
2022-10-20T20:19:00.387Z,100182.72
2022-10-20T20:21:28.705Z,100177.56
2022-10-20T20:23:59.774Z,100180.81
2022-10-20T20:26:31.243Z,100172.88
2022-10-20T20:29:00.229Z,100168.84
2022-10-20T20:31:29.318Z,100158.53
2022-10-20T20:33:58.602Z,100165.78
2022-10-20T20:36:28.121Z,100162.72
2022-10-20T20:38:58.155Z,100155.78
2022-10-20T20:41:27.530Z,100157.06
2022-10-20T20:43:57.027Z,100159.16
2022-10-20T20:46:26.810Z,100155.78
2022-10-20T20:48:54.929Z,100164.63
2022-10-20T20:51:22.991Z,100153.19
2022-10-20T20:53:50.915Z,100161.25
2022-10-20T20:56:21.866Z,100153.97
2022-10-20T20:58:55.050Z,100152.00
2022-10-20T21:01:27.250Z,100176.00
2022-10-20T21:03:56.604Z,100175.66
2022-10-20T21:06:33.172Z,100167.06
2022-10-20T21:09:02.300Z,100159.09
2022-10-20T21:11:30.464Z,100163.66
2022-10-20T21:13:59.203Z,100169.72
2022-10-20T21:16:30.158Z,100171.50
2022-10-20T21:19:00.122Z,100157.88
2022-10-20T21:21:29.110Z,100158.97
2022-10-20T21:23:57.859Z,100151.53
2022-10-20T21:26:26.045Z,100146.16
2022-10-20T21:28:54.441Z,100144.41
2022-10-20T21:31:25.056Z,100145.63
2022-10-20T21:33:55.927Z,100146.97
2022-10-20T21:36:24.192Z,100135.63
2022-10-20T21:38:52.499Z,100132.31
2022-10-20T21:41:21.264Z,100140.94
2022-10-20T21:43:50.510Z,100138.97
2022-10-20T21:46:19.699Z,100141.28
2022-10-20T21:48:48.557Z,100139.31
2022-10-20T21:51:19.920Z,100143.28
2022-10-20T21:53:51.846Z,100139.41
2022-10-20T21:56:23.840Z,100149.00
2022-10-20T21:58:51.917Z,100157.34
2022-10-20T22:01:20.786Z,100158.34
2022-10-20T22:03:49.547Z,100167.94
2022-10-20T22:06:20.266Z,100161.75
2022-10-20T22:08:49.538Z,100167.94
2022-10-20T22:11:19.243Z,100162.69
2022-10-20T22:13:47.621Z,100153.72
2022-10-20T22:16:17.283Z,100158.75
2022-10-20T22:18:45.518Z,100161.50
2022-10-20T22:21:15.515Z,100161.53
2022-10-20T22:23:45.549Z,100162.22
2022-10-20T22:26:13.501Z,100154.41
2022-10-20T22:28:41.544Z,100152.81
2022-10-20T22:31:11.038Z,100152.75
2022-10-20T22:33:40.719Z,100140.44
2022-10-20T22:36:08.903Z,100143.06
2022-10-20T22:38:36.859Z,100138.44
2022-10-20T22:41:06.169Z,100142.25
2022-10-20T22:43:34.159Z,100132.25
2022-10-20T22:46:02.264Z,100134.44
2022-10-20T22:48:30.256Z,100136.63
2022-10-20T22:50:58.208Z,100140.31
2022-10-20T22:53:26.558Z,100142.06
2022-10-20T22:55:54.471Z,100145.22
2022-10-20T22:58:24.013Z,100147.69
2022-10-20T23:00:51.980Z,100134.16
2022-10-20T23:03:19.948Z,100133.25
2022-10-20T23:05:47.863Z,100148.41
2022-10-20T23:08:15.733Z,100150.25
2022-10-20T23:10:43.803Z,100150.84
2022-10-20T23:13:11.774Z,100154.19
2022-10-20T23:15:41.017Z,100149.34
2022-10-20T23:18:08.886Z,100145.91
2022-10-20T23:20:36.793Z,100141.78
2022-10-20T23:23:04.850Z,100135.47
2022-10-20T23:25:32.756Z,100130.19
2022-10-20T23:28:00.697Z,100132.72
2022-10-20T23:30:28.635Z,100116.56
2022-10-20T23:32:57.982Z,100128.03
2022-10-20T23:35:26.131Z,100125.03
2022-10-20T23:37:54.093Z,100119.19
2022-10-20T23:40:21.964Z,100121.59
2022-10-20T23:42:49.965Z,100115.41
2022-10-20T23:45:17.921Z,100117.78
2022-10-20T23:47:45.992Z,100117.44
2022-10-20T23:50:16.536Z,100130.34
2022-10-20T23:52:44.484Z,100125.97
2022-10-20T23:55:15.381Z,100129.97
2022-10-20T23:57:43.867Z,100127.78
